sensor_id;sensor_type;location;lat;lon;timestamp;P1;durP1;ratioP1;P2;durP2;ratioP2
57321;SDS011;43159;51.006;18.224;2023-04-15T00:05:56;12.50;;;6.50;;
57321;SDS011;43159;51.006;18.224;2023-04-15T00:15:39;11.10;;;5.20;;
57321;SDS011;43159;51.006;18.224;2023-04-15T00:25:25;16.40;;;8.20;;
57321;SDS011;43159;51.006;18.224;2023-04-15T00:35:07;13.10;;;4.90;;
57321;SDS011;43159;51.006;18.224;2023-04-15T00:44:50;16.30;;;7.60;;
57321;SDS011;43159;51.006;18.224;2023-04-15T00:54:33;18.90;;;5.60;;
57321;SDS011;43159;51.006;18.224;2023-04-15T01:04:16;19.70;;;7.80;;
57321;SDS011;43159;51.006;18.224;2023-04-15T01:14:00;13.40;;;6.90;;
57321;SDS011;43159;51.006;18.224;2023-04-15T01:23:44;13.30;;;6.10;;
57321;SDS011;43159;51.006;18.224;2023-04-15T01:33:31;15.00;;;7.80;;
57321;SDS011;43159;51.006;18.224;2023-04-15T01:43:13;18.20;;;7.50;;
57321;SDS011;43159;51.006;18.224;2023-04-15T01:52:57;12.90;;;6.80;;
57321;SDS011;43159;51.006;18.224;2023-04-15T02:02:40;23.10;;;7.50;;
57321;SDS011;43159;51.006;18.224;2023-04-15T02:12:23;13.40;;;6.10;;
57321;SDS011;43159;51.006;18.224;2023-04-15T02:22:05;10.90;;;4.50;;
57321;SDS011;43159;51.006;18.224;2023-04-15T02:31:49;16.30;;;7.60;;
57321;SDS011;43159;51.006;18.224;2023-04-15T02:41:31;11.40;;;5.90;;
57321;SDS011;43159;51.006;18.224;2023-04-15T02:51:14;13.40;;;6.70;;
57321;SDS011;43159;51.006;18.224;2023-04-15T03:01:01;15.00;;;6.90;;
57321;SDS011;43159;51.006;18.224;2023-04-15T03:10:45;17.20;;;9.10;;
57321;SDS011;43159;51.006;18.224;2023-04-15T03:20:28;15.30;;;7.70;;
57321;SDS011;43159;51.006;18.224;2023-04-15T03:30:10;16.50;;;8.60;;
57321;SDS011;43159;51.006;18.224;2023-04-15T03:39:53;15.30;;;6.60;;
57321;SDS011;43159;51.006;18.224;2023-04-15T03:49:35;17.40;;;8.50;;
57321;SDS011;43159;51.006;18.224;2023-04-15T03:59:18;13.10;;;5.90;;
57321;SDS011;43159;51.006;18.224;2023-04-15T04:09:01;10.00;;;3.50;;
57321;SDS011;43159;51.006;18.224;2023-04-15T04:18:43;17.60;;;6.90;;
57321;SDS011;43159;51.006;18.224;2023-04-15T04:28:26;13.10;;;5.60;;
57321;SDS011;43159;51.006;18.224;2023-04-15T04:38:08;11.50;;;3.80;;
57321;SDS011;43159;51.006;18.224;2023-04-15T04:47:50;14.10;;;4.80;;
57321;SDS011;43159;51.006;18.224;2023-04-15T04:57:33;20.70;;;5.20;;
57321;SDS011;43159;51.006;18.224;2023-04-15T05:07:18;10.70;;;4.50;;
57321;SDS011;43159;51.006;18.224;2023-04-15T05:17:05;12.10;;;5.30;;
57321;SDS011;43159;51.006;18.224;2023-04-15T05:26:47;13.30;;;4.50;;
57321;SDS011;43159;51.006;18.224;2023-04-15T05:36:29;10.70;;;3.90;;
57321;SDS011;43159;51.006;18.224;2023-04-15T05:46:12;10.50;;;3.70;;
57321;SDS011;43159;51.006;18.224;2023-04-15T05:55:54;11.20;;;3.10;;
57321;SDS011;43159;51.006;18.224;2023-04-15T06:05:37;7.70;;;2.60;;
57321;SDS011;43159;51.006;18.224;2023-04-15T06:15:20;8.00;;;2.30;;
57321;SDS011;43159;51.006;18.224;2023-04-15T06:25:05;6.40;;;2.10;;
57321;SDS011;43159;51.006;18.224;2023-04-15T06:34:49;8.70;;;2.60;;
57321;SDS011;43159;51.006;18.224;2023-04-15T06:44:33;6.10;;;2.00;;
57321;SDS011;43159;51.006;18.224;2023-04-15T06:54:17;4.40;;;1.80;;
57321;SDS011;43159;51.006;18.224;2023-04-15T07:03:59;5.90;;;1.90;;
57321;SDS011;43159;51.006;18.224;2023-04-15T07:13:43;5.40;;;1.70;;
57321;SDS011;43159;51.006;18.224;2023-04-15T07:23:25;4.20;;;1.50;;
57321;SDS011;43159;51.006;18.224;2023-04-15T07:33:08;5.80;;;2.10;;
57321;SDS011;43159;51.006;18.224;2023-04-15T07:42:50;6.90;;;1.80;;
57321;SDS011;43159;51.006;18.224;2023-04-15T07:52:33;2.70;;;0.90;;
57321;SDS011;43159;51.006;18.224;2023-04-15T08:02:28;5.30;;;1.50;;
57321;SDS011;43159;51.006;18.224;2023-04-15T08:12:11;1.00;;;0.70;;
57321;SDS011;43159;51.006;18.224;2023-04-15T08:21:55;3.80;;;1.30;;
57321;SDS011;43159;51.006;18.224;2023-04-15T08:31:38;2.50;;;1.20;;
57321;SDS011;43159;51.006;18.224;2023-04-15T08:41:21;0.70;;;0.70;;
57321;SDS011;43159;51.006;18.224;2023-04-15T08:51:07;1.70;;;0.90;;
57321;SDS011;43159;51.006;18.224;2023-04-15T09:00:51;1.30;;;1.30;;
57321;SDS011;43159;51.006;18.224;2023-04-15T09:10:37;0.40;;;0.40;;
57321;SDS011;43159;51.006;18.224;2023-04-15T09:20:19;2.50;;;1.20;;
57321;SDS011;43159;51.006;18.224;2023-04-15T09:30:17;3.70;;;1.30;;
57321;SDS011;43159;51.006;18.224;2023-04-15T09:40:07;2.00;;;1.10;;
57321;SDS011;43159;51.006;18.224;2023-04-15T09:50:01;4.20;;;1.20;;
57321;SDS011;43159;51.006;18.224;2023-04-15T09:59:46;1.70;;;1.10;;
57321;SDS011;43159;51.006;18.224;2023-04-15T10:09:30;4.50;;;1.20;;
57321;SDS011;43159;51.006;18.224;2023-04-15T10:19:15;2.50;;;1.20;;
57321;SDS011;43159;51.006;18.224;2023-04-15T10:29:00;3.50;;;1.40;;
57321;SDS011;43159;51.006;18.224;2023-04-15T10:38:43;4.70;;;1.40;;
57321;SDS011;43159;51.006;18.224;2023-04-15T10:48:30;4.30;;;1.10;;
57321;SDS011;43159;51.006;18.224;2023-04-15T10:58:24;6.80;;;1.90;;
57321;SDS011;43159;51.006;18.224;2023-04-15T11:08:15;2.60;;;1.50;;
57321;SDS011;43159;51.006;18.224;2023-04-15T11:18:10;4.20;;;1.50;;
57321;SDS011;43159;51.006;18.224;2023-04-15T11:28:04;8.70;;;2.00;;
57321;SDS011;43159;51.006;18.224;2023-04-15T11:37:53;8.20;;;2.30;;
57321;SDS011;43159;51.006;18.224;2023-04-15T11:47:59;11.40;;;3.40;;
57321;SDS011;43159;51.006;18.224;2023-04-15T11:58:07;7.70;;;1.70;;
57321;SDS011;43159;51.006;18.224;2023-04-15T12:08:46;0.70;;;0.70;;
57321;SDS011;43159;51.006;18.224;2023-04-15T12:18:33;5.20;;;1.60;;
57321;SDS011;43159;51.006;18.224;2023-04-15T12:28:21;3.00;;;1.40;;
57321;SDS011;43159;51.006;18.224;2023-04-15T12:38:07;7.40;;;2.10;;
57321;SDS011;43159;51.006;18.224;2023-04-15T12:45:25;36.70;;;16.10;;
57321;SDS011;43159;51.006;18.224;2023-04-15T12:55:10;10.00;;;3.80;;
57321;SDS011;43159;51.006;18.224;2023-04-15T13:04:56;6.40;;;1.60;;
57321;SDS011;43159;51.006;18.224;2023-04-15T13:14:39;5.60;;;1.50;;
57321;SDS011;43159;51.006;18.224;2023-04-15T13:24:26;9.10;;;2.70;;
57321;SDS011;43159;51.006;18.224;2023-04-15T13:34:09;9.10;;;3.40;;
57321;SDS011;43159;51.006;18.224;2023-04-15T13:43:51;10.80;;;3.70;;
57321;SDS011;43159;51.006;18.224;2023-04-15T13:53:33;10.40;;;3.30;;
57321;SDS011;43159;51.006;18.224;2023-04-15T14:03:16;8.20;;;3.30;;
57321;SDS011;43159;51.006;18.224;2023-04-15T14:13:00;8.80;;;2.80;;
57321;SDS011;43159;51.006;18.224;2023-04-15T14:22:42;9.10;;;3.30;;
57321;SDS011;43159;51.006;18.224;2023-04-15T14:32:24;8.60;;;3.20;;
57321;SDS011;43159;51.006;18.224;2023-04-15T14:42:07;8.20;;;2.80;;
57321;SDS011;43159;51.006;18.224;2023-04-15T14:51:49;8.20;;;3.20;;
57321;SDS011;43159;51.006;18.224;2023-04-15T15:01:32;9.70;;;2.10;;
57321;SDS011;43159;51.006;18.224;2023-04-15T15:11:14;6.20;;;2.00;;
57321;SDS011;43159;51.006;18.224;2023-04-15T15:20:57;7.10;;;2.20;;
57321;SDS011;43159;51.006;18.224;2023-04-15T15:30:39;9.30;;;3.90;;
57321;SDS011;43159;51.006;18.224;2023-04-15T15:40:22;6.80;;;2.20;;
57321;SDS011;43159;51.006;18.224;2023-04-15T15:50:06;7.60;;;2.80;;
57321;SDS011;43159;51.006;18.224;2023-04-15T15:59:48;9.10;;;2.90;;
57321;SDS011;43159;51.006;18.224;2023-04-15T16:09:31;9.30;;;3.50;;
57321;SDS011;43159;51.006;18.224;2023-04-15T16:19:15;10.80;;;3.80;;
57321;SDS011;43159;51.006;18.224;2023-04-15T16:28:57;11.30;;;3.90;;
57321;SDS011;43159;51.006;18.224;2023-04-15T16:38:39;10.90;;;3.60;;
57321;SDS011;43159;51.006;18.224;2023-04-15T16:48:21;15.30;;;3.70;;
57321;SDS011;43159;51.006;18.224;2023-04-15T16:58:05;7.60;;;3.20;;
57321;SDS011;43159;51.006;18.224;2023-04-15T17:07:47;11.10;;;3.10;;
57321;SDS011;43159;51.006;18.224;2023-04-15T17:17:30;8.80;;;2.70;;
57321;SDS011;43159;51.006;18.224;2023-04-15T17:27:12;9.70;;;3.10;;
57321;SDS011;43159;51.006;18.224;2023-04-15T17:36:54;8.70;;;2.70;;
57321;SDS011;43159;51.006;18.224;2023-04-15T17:46:36;9.10;;;3.20;;
57321;SDS011;43159;51.006;18.224;2023-04-15T17:56:18;12.00;;;4.00;;
57321;SDS011;43159;51.006;18.224;2023-04-15T18:06:00;10.10;;;3.40;;
57321;SDS011;43159;51.006;18.224;2023-04-15T18:15:43;10.10;;;3.50;;
57321;SDS011;43159;51.006;18.224;2023-04-15T18:25:25;19.80;;;6.20;;
57321;SDS011;43159;51.006;18.224;2023-04-15T18:35:07;15.50;;;5.20;;
57321;SDS011;43159;51.006;18.224;2023-04-15T18:44:52;23.10;;;8.00;;
57321;SDS011;43159;51.006;18.224;2023-04-15T18:54:34;31.50;;;9.40;;
57321;SDS011;43159;51.006;18.224;2023-04-15T19:04:19;22.20;;;9.40;;
57321;SDS011;43159;51.006;18.224;2023-04-15T19:14:02;16.60;;;6.00;;
57321;SDS011;43159;51.006;18.224;2023-04-15T19:23:43;33.30;;;8.80;;
57321;SDS011;43159;51.006;18.224;2023-04-15T19:33:26;18.80;;;7.50;;
57321;SDS011;43159;51.006;18.224;2023-04-15T19:43:16;121.70;;;36.10;;
57321;SDS011;43159;51.006;18.224;2023-04-15T19:53:03;22.80;;;9.50;;
57321;SDS011;43159;51.006;18.224;2023-04-15T20:02:45;20.10;;;8.00;;
57321;SDS011;43159;51.006;18.224;2023-04-15T20:12:27;18.70;;;6.80;;
57321;SDS011;43159;51.006;18.224;2023-04-15T20:14:53;34.10;;;17.20;;
57321;SDS011;43159;51.006;18.224;2023-04-15T20:24:36;25.70;;;10.30;;
57321;SDS011;43159;51.006;18.224;2023-04-15T20:34:20;27.60;;;8.30;;
57321;SDS011;43159;51.006;18.224;2023-04-15T20:44:02;20.30;;;9.20;;
57321;SDS011;43159;51.006;18.224;2023-04-15T20:53:44;17.20;;;8.10;;
57321;SDS011;43159;51.006;18.224;2023-04-15T21:03:26;17.10;;;7.70;;
57321;SDS011;43159;51.006;18.224;2023-04-15T21:13:08;19.60;;;9.20;;
57321;SDS011;43159;51.006;18.224;2023-04-15T21:22:50;20.60;;;9.40;;
57321;SDS011;43159;51.006;18.224;2023-04-15T21:32:34;19.60;;;9.50;;
57321;SDS011;43159;51.006;18.224;2023-04-15T21:42:16;29.50;;;12.80;;
57321;SDS011;43159;51.006;18.224;2023-04-15T21:51:58;33.40;;;11.40;;
57321;SDS011;43159;51.006;18.224;2023-04-15T22:01:43;30.90;;;11.60;;
57321;SDS011;43159;51.006;18.224;2023-04-15T22:11:25;25.00;;;10.60;;
57321;SDS011;43159;51.006;18.224;2023-04-15T22:21:11;22.90;;;9.40;;
57321;SDS011;43159;51.006;18.224;2023-04-15T22:30:54;22.60;;;9.70;;
57321;SDS011;43159;51.006;18.224;2023-04-15T22:40:38;21.50;;;10.90;;
57321;SDS011;43159;51.006;18.224;2023-04-15T22:50:20;30.60;;;12.30;;
57321;SDS011;43159;51.006;18.224;2023-04-15T23:00:03;17.30;;;9.00;;
57321;SDS011;43159;51.006;18.224;2023-04-15T23:09:46;24.10;;;11.10;;
57321;SDS011;43159;51.006;18.224;2023-04-15T23:19:28;29.30;;;13.20;;
57321;SDS011;43159;51.006;18.224;2023-04-15T23:29:10;31.40;;;11.00;;
57321;SDS011;43159;51.006;18.224;2023-04-15T23:38:52;25.50;;;11.20;;
57321;SDS011;43159;51.006;18.224;2023-04-15T23:48:37;24.50;;;11.70;;
57321;SDS011;43159;51.006;18.224;2023-04-15T23:58:21;29.90;;;12.30;;
